createdAt,value
2022-08-19T00:01:28.559Z,11.43
2022-08-19T00:04:00.817Z,11.23
2022-08-19T00:06:29.165Z,11.00
2022-08-19T00:08:56.645Z,10.80
2022-08-19T00:11:26.033Z,11.13
2022-08-19T00:13:53.660Z,11.47
2022-08-19T00:16:25.194Z,11.10
2022-08-19T00:18:54.503Z,12.00
2022-08-19T00:21:21.075Z,11.95
2022-08-19T00:23:47.742Z,11.93
2022-08-19T00:26:15.115Z,11.50
2022-08-19T00:28:42.170Z,11.38
2022-08-19T00:31:11.887Z,11.45
2022-08-19T00:33:39.090Z,11.35
2022-08-19T00:36:07.832Z,11.23
2022-08-19T00:38:37.535Z,10.77
2022-08-19T00:41:06.125Z,11.07
2022-08-19T00:43:32.787Z,11.10
2022-08-19T00:45:59.301Z,11.93
2022-08-19T00:48:26.078Z,11.98
2022-08-19T00:50:55.312Z,12.20
2022-08-19T00:56:11.802Z,12.05
2022-08-19T00:58:38.411Z,11.48
2022-08-19T01:01:06.381Z,12.13
2022-08-19T01:03:57.207Z,12.13
2022-08-19T01:06:21.117Z,13.07
2022-08-19T01:08:47.630Z,12.80
2022-08-19T01:11:17.488Z,13.05
2022-08-19T01:13:48.885Z,12.35
2022-08-19T01:16:18.224Z,12.77
2022-08-19T01:18:44.818Z,12.60
2022-08-19T01:21:23.763Z,12.70
2022-08-19T01:23:50.275Z,12.00
2022-08-19T01:26:21.112Z,12.68
2022-08-19T01:28:49.682Z,12.57
2022-08-19T01:31:28.460Z,12.73
2022-08-19T01:33:57.946Z,12.82
2022-08-19T01:36:32.241Z,12.30
2022-08-19T01:39:05.646Z,12.52
2022-08-19T01:41:37.808Z,12.43
2022-08-19T01:44:18.120Z,12.25
2022-08-19T01:46:50.765Z,13.40
2022-08-19T01:49:24.510Z,14.20
2022-08-19T01:52:50.411Z,14.85
2022-08-19T01:54:54.954Z,14.10
2022-08-19T01:57:24.037Z,12.75
2022-08-19T01:59:56.742Z,11.95
2022-08-19T02:02:28.229Z,12.35
2022-08-19T02:05:03.076Z,12.65
2022-08-19T02:07:37.999Z,12.73
2022-08-19T02:10:19.277Z,13.23
2022-08-19T02:12:46.166Z,13.63
2022-08-19T02:15:14.857Z,13.20
2022-08-19T02:17:41.933Z,12.93
2022-08-19T02:20:14.168Z,12.27
2022-08-19T02:22:57.611Z,12.82
2022-08-19T02:25:24.518Z,12.77
2022-08-19T02:27:51.180Z,12.38
2022-08-19T02:30:20.550Z,12.60
2022-08-19T02:32:47.627Z,12.50
2022-08-19T02:35:22.487Z,12.40
2022-08-19T02:38:09.800Z,12.98
2022-08-19T02:40:39.894Z,13.35
2022-08-19T02:43:33.630Z,12.43
2022-08-19T02:46:41.595Z,11.97
2022-08-19T02:49:34.573Z,12.07
2022-08-19T02:52:16.954Z,12.50
2022-08-19T02:55:23.882Z,12.25
2022-08-19T02:58:28.244Z,12.10
2022-08-19T03:01:45.810Z,12.40
2022-08-19T03:05:48.084Z,11.75
2022-08-19T03:10:56.306Z,11.95
2022-08-19T03:13:26.781Z,12.13
2022-08-19T03:16:15.956Z,12.07
2022-08-19T03:18:45.073Z,12.37
2022-08-19T03:21:19.371Z,12.60
2022-08-19T03:23:52.399Z,12.60
2022-08-19T03:26:19.212Z,11.98
2022-08-19T03:28:57.983Z,12.25
2022-08-19T03:31:55.943Z,11.30
2022-08-19T03:34:40.183Z,11.32
2022-08-19T03:37:14.128Z,12.20
2022-08-19T03:39:50.775Z,12.20
2022-08-19T03:42:45.398Z,12.23
2022-08-19T03:45:23.579Z,12.30
2022-08-19T03:48:11.627Z,12.27
2022-08-19T03:50:52.667Z,12.43
2022-08-19T03:53:31.221Z,12.15
2022-08-19T03:56:38.601Z,11.55
2022-08-19T03:59:14.347Z,11.93
2022-08-19T04:04:24.240Z,12.57
2022-08-19T04:06:56.475Z,12.32
2022-08-19T04:09:25.197Z,13.30
2022-08-19T04:11:56.814Z,13.03
2022-08-19T04:14:26.130Z,13.60
2022-08-19T04:16:56.361Z,12.48
2022-08-19T04:19:24.018Z,13.10
2022-08-19T04:24:35.022Z,12.50
2022-08-19T04:27:07.713Z,12.40
2022-08-19T04:29:34.474Z,12.20
2022-08-19T04:32:08.939Z,12.65
2022-08-19T04:34:36.428Z,12.70
2022-08-19T04:37:22.971Z,12.77
2022-08-19T04:40:08.007Z,12.65
2022-08-19T04:42:40.118Z,12.75
2022-08-19T04:45:14.652Z,13.05
2022-08-19T04:47:46.962Z,12.68
2022-08-19T04:50:20.083Z,13.13
2022-08-19T04:52:47.428Z,12.88
2022-08-19T04:55:20.784Z,13.60
2022-08-19T04:57:54.668Z,14.30
2022-08-19T05:00:21.206Z,15.10
2022-08-19T05:02:50.353Z,13.80
2022-08-19T05:05:17.076Z,15.10
2022-08-19T05:07:43.893Z,14.88
2022-08-19T05:10:10.826Z,15.07
2022-08-19T05:12:37.841Z,14.27
2022-08-19T05:15:05.524Z,13.70
2022-08-19T05:17:36.276Z,13.48
2022-08-19T05:20:26.115Z,14.32
2022-08-19T05:22:53.437Z,14.55
2022-08-19T05:25:21.446Z,14.52
2022-08-19T05:27:48.600Z,13.77
2022-08-19T05:30:15.719Z,13.52
2022-08-19T05:32:42.835Z,14.07
2022-08-19T05:35:12.118Z,13.15
2022-08-19T05:37:40.951Z,13.15
2022-08-19T05:40:08.573Z,12.73
2022-08-19T05:42:35.138Z,12.82
2022-08-19T05:45:01.719Z,12.98
2022-08-19T05:47:28.357Z,13.15
2022-08-19T05:49:57.439Z,12.73
2022-08-19T05:52:25.576Z,12.40
2022-08-19T05:54:55.982Z,12.98
2022-08-19T05:57:23.739Z,13.07
2022-08-19T05:59:53.097Z,12.70
2022-08-19T06:02:25.962Z,12.70
2022-08-19T06:04:56.422Z,11.67
2022-08-19T06:07:23.146Z,11.65
2022-08-19T06:09:58.995Z,11.57
2022-08-19T06:12:29.867Z,12.15
2022-08-19T06:15:00.767Z,11.93
2022-08-19T06:17:30.126Z,12.10
2022-08-19T06:19:57.197Z,11.52
2022-08-19T06:22:23.899Z,11.98
2022-08-19T06:24:53.641Z,12.07
2022-08-19T06:27:22.949Z,11.48
2022-08-19T06:29:49.747Z,11.73
2022-08-19T06:32:17.726Z,11.68
2022-08-19T06:34:45.928Z,11.75
2022-08-19T06:37:13.309Z,11.95
2022-08-19T06:39:41.694Z,11.73
2022-08-19T06:42:13.990Z,11.83
2022-08-19T06:44:43.218Z,10.85
2022-08-19T06:47:14.672Z,10.35
2022-08-19T06:49:42.540Z,11.10
2022-08-19T06:52:13.670Z,10.82
2022-08-19T06:54:56.044Z,10.60
2022-08-19T06:57:25.265Z,10.40
2022-08-19T06:59:52.131Z,11.40
2022-08-19T07:02:19.702Z,10.90
2022-08-19T07:04:46.252Z,11.40
2022-08-19T07:07:21.005Z,10.63
2022-08-19T07:09:57.947Z,10.57
2022-08-19T07:12:30.225Z,10.98
2022-08-19T07:14:58.685Z,10.25
2022-08-19T07:17:25.856Z,11.60
2022-08-19T07:19:54.404Z,9.93
2022-08-19T07:22:24.175Z,10.35
2022-08-19T07:24:52.005Z,9.70
2022-08-19T07:27:24.126Z,10.52
2022-08-19T07:29:55.867Z,10.35
2022-08-19T07:32:24.005Z,10.47
2022-08-19T07:34:50.576Z,10.43
2022-08-19T07:37:17.378Z,10.93
2022-08-19T07:39:44.180Z,10.52
2022-08-19T07:42:14.659Z,10.50
2022-08-19T07:44:42.190Z,10.83
2022-08-19T07:47:49.810Z,11.13
2022-08-19T07:50:07.890Z,10.60
2022-08-19T07:52:35.803Z,10.20
2022-08-19T07:55:04.918Z,10.30
2022-08-19T07:57:32.739Z,10.73
2022-08-19T07:59:59.864Z,9.95
2022-08-19T08:02:26.469Z,10.18
2022-08-19T08:05:11.597Z,10.00
2022-08-19T08:07:56.959Z,10.73
2022-08-19T08:10:24.254Z,10.20
2022-08-19T08:13:09.408Z,9.85
2022-08-19T08:15:42.737Z,9.88
2022-08-19T08:18:10.793Z,9.60
2022-08-19T08:20:37.452Z,9.32
2022-08-19T08:23:22.863Z,9.33
2022-08-19T08:25:50.170Z,8.57
2022-08-19T08:28:18.070Z,9.52
2022-08-19T08:30:49.047Z,9.27
2022-08-19T08:33:30.154Z,9.45
2022-08-19T08:36:01.644Z,8.40
2022-08-19T08:38:36.928Z,8.93
2022-08-19T08:41:18.807Z,9.00
2022-08-19T08:43:49.170Z,8.40
2022-08-19T08:46:42.487Z,7.82
2022-08-19T08:49:21.442Z,7.53
2022-08-19T08:52:00.084Z,7.95
2022-08-19T08:54:32.535Z,7.60
2022-08-19T08:57:01.751Z,7.50
2022-08-19T08:59:36.228Z,7.07
2022-08-19T09:02:02.819Z,6.90
2022-08-19T09:04:30.171Z,7.10
2022-08-19T09:07:33.869Z,7.38
2022-08-19T09:10:12.956Z,6.95
2022-08-19T09:12:55.134Z,6.35
2022-08-19T09:15:33.485Z,6.63
2022-08-19T09:18:07.112Z,6.90
2022-08-19T09:20:35.104Z,7.03
2022-08-19T09:23:01.875Z,6.20
2022-08-19T09:25:29.526Z,6.35
2022-08-19T09:27:57.934Z,6.57
2022-08-19T09:30:31.973Z,7.07
2022-08-19T09:32:58.800Z,6.88
2022-08-19T09:35:28.339Z,6.43
2022-08-19T09:37:57.667Z,7.03
2022-08-19T09:40:28.083Z,6.47
2022-08-19T09:42:58.184Z,6.32
2022-08-19T09:45:25.006Z,7.30
2022-08-19T09:47:54.117Z,6.60
2022-08-19T09:50:21.854Z,7.30
2022-08-19T09:52:55.206Z,7.33
2022-08-19T09:55:24.183Z,6.82
2022-08-19T09:57:50.842Z,6.70
2022-08-19T10:00:18.760Z,6.25
2022-08-19T10:02:45.790Z,6.93
2022-08-19T10:05:31.382Z,6.60
2022-08-19T10:07:58.395Z,6.78
2022-08-19T10:10:25.106Z,6.97
2022-08-19T10:12:51.946Z,6.50
2022-08-19T10:15:29.211Z,6.38
2022-08-19T10:17:56.526Z,6.67
2022-08-19T10:20:25.536Z,6.22
2022-08-19T10:22:52.082Z,6.85
2022-08-19T10:25:20.159Z,5.95
2022-08-19T10:27:48.394Z,6.57
2022-08-19T10:30:18.167Z,23.03
2022-08-19T10:32:46.932Z,6.15
2022-08-19T10:35:14.525Z,6.47
2022-08-19T10:37:56.707Z,6.32
2022-08-19T10:40:24.421Z,7.25
2022-08-19T10:42:51.028Z,6.70
2022-08-19T10:45:17.977Z,6.32
2022-08-19T10:47:44.515Z,6.72
2022-08-19T10:50:30.088Z,6.70
2022-08-19T10:52:56.775Z,6.70
2022-08-19T10:55:43.718Z,6.53
2022-08-19T10:58:15.164Z,6.82
2022-08-19T11:00:44.072Z,7.20
2022-08-19T11:03:11.165Z,6.22
2022-08-19T11:05:39.747Z,7.25
2022-08-19T11:08:21.221Z,7.10
2022-08-19T11:10:50.563Z,6.22
2022-08-19T11:13:17.220Z,6.97
2022-08-19T11:15:45.058Z,6.72
2022-08-19T11:18:13.513Z,6.20
2022-08-19T11:20:40.268Z,6.90
2022-08-19T11:23:07.408Z,6.25
2022-08-19T11:25:34.342Z,6.25
2022-08-19T11:28:00.864Z,6.35
2022-08-19T11:30:28.980Z,6.50
2022-08-19T11:32:55.751Z,6.47
2022-08-19T11:35:24.368Z,6.75
2022-08-19T11:37:50.930Z,7.45
2022-08-19T11:40:19.033Z,6.55
2022-08-19T11:42:57.200Z,6.47
2022-08-19T11:45:25.597Z,6.97
2022-08-19T11:47:52.117Z,6.95
2022-08-19T11:50:18.988Z,7.18
2022-08-19T11:52:46.267Z,6.80
2022-08-19T11:55:14.682Z,7.18
2022-08-19T11:57:44.736Z,6.67
2022-08-19T12:00:14.275Z,6.70
2022-08-19T12:02:41.264Z,7.20
2022-08-19T12:05:12.573Z,7.30
2022-08-19T12:07:40.761Z,7.47
2022-08-19T12:10:07.747Z,7.20
2022-08-19T12:12:35.086Z,6.85
2022-08-19T12:15:03.771Z,6.80
2022-08-19T12:17:31.878Z,6.72
2022-08-19T12:19:58.534Z,6.90
2022-08-19T12:22:25.138Z,6.77
2022-08-19T12:24:54.155Z,7.03
2022-08-19T12:27:35.678Z,6.88
2022-08-19T12:30:09.752Z,6.65
2022-08-19T12:32:36.399Z,6.70
2022-08-19T12:35:02.983Z,6.60
2022-08-19T12:37:30.628Z,6.47
2022-08-19T12:40:00.565Z,6.20
2022-08-19T12:42:27.219Z,6.57
2022-08-19T12:44:53.912Z,6.65
2022-08-19T12:47:21.394Z,6.27
2022-08-19T12:49:55.563Z,6.80
2022-08-19T12:52:26.817Z,6.80
2022-08-19T12:54:55.346Z,6.47
2022-08-19T12:57:32.454Z,6.60
2022-08-19T13:00:00.901Z,6.70
2022-08-19T13:02:38.974Z,6.93
2022-08-19T13:05:09.675Z,6.97
2022-08-19T13:07:37.119Z,7.00
2022-08-19T13:10:08.826Z,6.78
2022-08-19T13:12:39.046Z,6.83
2022-08-19T13:15:10.555Z,6.63
2022-08-19T13:17:39.062Z,7.00
2022-08-19T13:20:08.702Z,7.43
2022-08-19T13:22:37.117Z,6.63
2022-08-19T13:25:06.275Z,7.40
2022-08-19T13:27:33.112Z,7.40
2022-08-19T13:30:18.929Z,6.95
2022-08-19T13:33:09.409Z,7.05
2022-08-19T13:35:42.894Z,6.78
2022-08-19T13:38:12.135Z,7.23
2022-08-19T13:40:39.793Z,6.30
2022-08-19T13:43:23.104Z,7.25
2022-08-19T13:45:57.579Z,7.05
2022-08-19T13:48:27.294Z,6.95
2022-08-19T13:50:57.307Z,6.87
2022-08-19T13:53:24.627Z,6.90
2022-08-19T13:55:52.074Z,6.60
2022-08-19T13:58:18.576Z,7.15
2022-08-19T14:00:47.256Z,6.85
2022-08-19T14:03:14.394Z,6.80
2022-08-19T14:05:40.960Z,7.03
2022-08-19T14:08:07.600Z,7.22
2022-08-19T14:10:34.359Z,6.53
2022-08-19T14:13:03.948Z,7.13
2022-08-19T14:15:31.271Z,7.30
2022-08-19T14:17:58.481Z,6.90
2022-08-19T14:20:25.860Z,7.10
2022-08-19T14:22:54.009Z,6.93
2022-08-19T14:25:25.019Z,6.65
2022-08-19T14:27:51.932Z,6.73
2022-08-19T14:30:24.198Z,7.07
2022-08-19T14:32:50.668Z,6.47
2022-08-19T14:35:17.513Z,6.85
2022-08-19T14:37:46.129Z,6.97
2022-08-19T14:40:15.318Z,7.37
2022-08-19T14:42:42.820Z,6.88
2022-08-19T14:45:10.708Z,7.03
2022-08-19T14:47:38.286Z,7.15
2022-08-19T14:50:11.372Z,6.95
2022-08-19T14:52:45.942Z,7.77
2022-08-19T14:55:12.648Z,7.05
2022-08-19T14:57:41.797Z,6.70
2022-08-19T15:00:14.521Z,6.88
2022-08-19T15:02:42.323Z,7.03
2022-08-19T15:05:09.461Z,7.30
2022-08-19T15:07:36.192Z,6.93
2022-08-19T15:10:02.775Z,6.88
2022-08-19T15:12:29.277Z,6.90
2022-08-19T15:14:56.785Z,7.13
2022-08-19T15:17:43.449Z,7.60
2022-08-19T15:20:13.526Z,7.35
2022-08-19T15:22:41.022Z,7.13
2022-08-19T15:25:09.564Z,7.60
2022-08-19T15:27:39.783Z,7.38
2022-08-19T15:30:11.201Z,7.20
2022-08-19T15:32:38.881Z,7.57
2022-08-19T15:35:07.888Z,7.15
2022-08-19T15:37:37.437Z,7.47
2022-08-19T15:40:09.019Z,6.82
2022-08-19T15:42:36.766Z,7.83
2022-08-19T15:45:06.563Z,7.75
2022-08-19T15:47:34.810Z,7.82
2022-08-19T15:50:06.137Z,7.38
2022-08-19T15:52:34.066Z,7.65
2022-08-19T15:55:07.132Z,7.73
2022-08-19T15:57:51.911Z,7.03
2022-08-19T16:00:37.062Z,7.28
2022-08-19T16:03:22.475Z,7.38
2022-08-19T16:06:08.307Z,7.18
2022-08-19T16:08:49.029Z,7.37
2022-08-19T16:11:21.090Z,7.20
2022-08-19T16:13:51.858Z,7.13
2022-08-19T16:16:22.048Z,7.55
2022-08-19T16:18:49.389Z,7.75
2022-08-19T16:21:17.331Z,7.80
2022-08-19T16:23:46.560Z,8.02
2022-08-19T16:26:15.415Z,7.13
2022-08-19T16:28:58.333Z,7.43
2022-08-19T16:31:25.445Z,8.40
2022-08-19T16:33:52.188Z,8.07
2022-08-19T16:36:18.922Z,8.43
2022-08-19T16:38:49.384Z,8.13
2022-08-19T16:41:16.147Z,8.38
2022-08-19T16:43:42.637Z,8.55
2022-08-19T16:46:10.300Z,8.23
2022-08-19T16:48:42.861Z,8.73
2022-08-19T16:51:10.612Z,9.00
2022-08-19T16:53:38.971Z,8.60
2022-08-19T16:56:05.637Z,8.68
2022-08-19T16:58:35.323Z,8.37
2022-08-19T17:01:06.533Z,7.80
2022-08-19T17:03:36.071Z,8.38
2022-08-19T17:06:18.990Z,8.40
2022-08-19T17:09:18.227Z,8.70
2022-08-19T17:11:53.029Z,8.40
2022-08-19T17:14:20.279Z,8.55
2022-08-19T17:16:47.752Z,8.20
2022-08-19T17:19:18.020Z,8.77
2022-08-19T17:21:44.579Z,9.07
2022-08-19T17:24:11.175Z,8.87
2022-08-19T17:26:39.323Z,8.55
2022-08-19T17:29:06.299Z,8.60
2022-08-19T17:31:36.737Z,8.52
2022-08-19T17:34:07.104Z,8.85
2022-08-19T17:36:39.148Z,8.57
2022-08-19T17:39:05.803Z,8.77
2022-08-19T17:41:36.054Z,9.50
2022-08-19T17:44:04.862Z,8.68
2022-08-19T17:46:31.715Z,8.63
2022-08-19T17:48:58.312Z,8.40
2022-08-19T17:51:34.029Z,8.60
2022-08-19T17:54:01.821Z,8.48
2022-08-19T17:56:31.145Z,8.60
2022-08-19T17:59:00.687Z,8.93
2022-08-19T18:01:43.010Z,8.97
2022-08-19T18:04:17.212Z,8.60
2022-08-19T18:06:45.771Z,9.00
2022-08-19T18:09:13.883Z,8.65
2022-08-19T18:11:41.059Z,8.60
2022-08-19T18:14:07.720Z,8.17
2022-08-19T18:16:34.458Z,8.68
2022-08-19T18:19:01.216Z,8.98
2022-08-19T18:21:31.801Z,8.55
2022-08-19T18:24:01.738Z,9.23
2022-08-19T18:26:30.628Z,9.17
2022-08-19T18:28:59.312Z,8.63
2022-08-19T18:31:25.801Z,8.50
2022-08-19T18:33:55.245Z,8.68
2022-08-19T18:36:50.133Z,8.45
2022-08-19T18:39:29.243Z,8.67
2022-08-19T18:42:14.918Z,9.07
2022-08-19T18:45:00.138Z,8.75
2022-08-19T18:47:45.495Z,8.82
2022-08-19T18:50:17.772Z,8.77
2022-08-19T18:52:44.273Z,9.30
2022-08-19T18:55:10.763Z,9.32
2022-08-19T18:57:37.575Z,9.88
2022-08-19T19:00:05.494Z,9.30
2022-08-19T19:02:38.531Z,9.55
2022-08-19T19:05:07.731Z,8.97
2022-08-19T19:07:36.435Z,9.68
2022-08-19T19:10:04.404Z,8.95
2022-08-19T19:12:32.519Z,8.70
2022-08-19T19:14:59.207Z,9.45
2022-08-19T19:17:28.030Z,9.07
2022-08-19T19:19:54.539Z,8.80
2022-08-19T19:22:22.439Z,9.80
2022-08-19T19:24:50.837Z,9.57
2022-08-19T19:27:22.850Z,9.27
2022-08-19T19:29:52.764Z,9.40
2022-08-19T19:32:22.951Z,8.75
2022-08-19T19:34:49.605Z,9.63
2022-08-19T19:37:17.011Z,9.63
2022-08-19T19:39:46.365Z,9.52
2022-08-19T19:42:20.542Z,9.20
2022-08-19T19:44:50.377Z,9.52
2022-08-19T19:47:18.859Z,9.75
2022-08-19T19:52:38.364Z,9.27
2022-08-19T19:55:09.463Z,9.50
2022-08-19T19:57:39.358Z,9.13
2022-08-19T20:00:11.262Z,9.40
2022-08-19T20:02:37.849Z,9.32
2022-08-19T20:05:07.197Z,10.07
2022-08-19T20:07:53.279Z,9.83
2022-08-19T20:10:19.849Z,9.73
2022-08-19T20:12:46.334Z,10.00
2022-08-19T20:15:14.905Z,9.50
2022-08-19T20:17:42.690Z,9.75
2022-08-19T20:20:14.390Z,9.97
2022-08-19T20:22:45.839Z,9.50
2022-08-19T20:25:14.465Z,9.43
2022-08-19T20:27:43.922Z,9.43
2022-08-19T20:30:25.936Z,9.57
2022-08-19T20:32:56.484Z,9.90
2022-08-19T20:35:23.444Z,10.00
2022-08-19T20:37:53.826Z,10.25
2022-08-19T20:40:34.101Z,10.75
2022-08-19T20:43:12.385Z,9.55
2022-08-19T20:45:42.158Z,9.13
2022-08-19T20:48:10.673Z,9.48
2022-08-19T20:50:37.354Z,10.10
2022-08-19T20:53:13.314Z,9.43
2022-08-19T20:55:40.126Z,9.55
2022-08-19T20:58:07.733Z,9.70
2022-08-19T21:00:34.324Z,9.88
2022-08-19T21:03:03.891Z,10.00
2022-08-19T21:05:31.914Z,10.02
2022-08-19T21:07:58.677Z,9.68
2022-08-19T21:10:27.298Z,9.07
2022-08-19T21:13:04.599Z,9.57
2022-08-19T21:15:31.233Z,9.68
2022-08-19T21:17:58.272Z,9.85
2022-08-19T21:20:25.266Z,9.57
2022-08-19T21:22:51.819Z,9.53
2022-08-19T21:25:18.305Z,9.25
2022-08-19T21:27:44.856Z,10.02
2022-08-19T21:30:27.509Z,9.65
2022-08-19T21:33:02.045Z,10.25
2022-08-19T21:35:28.910Z,9.60
2022-08-19T21:37:55.675Z,9.57
2022-08-19T21:40:22.329Z,10.05
2022-08-19T21:42:49.090Z,9.68
2022-08-19T21:45:17.437Z,9.88
2022-08-19T21:47:44.509Z,9.30
2022-08-19T21:50:11.514Z,9.82
2022-08-19T21:52:40.193Z,9.50
2022-08-19T21:55:08.573Z,9.48
2022-08-19T21:57:35.710Z,9.30
2022-08-19T22:00:03.146Z,9.47
2022-08-19T22:02:29.611Z,9.45
2022-08-19T22:04:56.128Z,8.77
2022-08-19T22:07:22.697Z,9.43
2022-08-19T22:09:50.503Z,9.15
2022-08-19T22:12:29.075Z,8.90
2022-08-19T22:14:56.999Z,8.57
2022-08-19T22:17:23.975Z,9.32
2022-08-19T22:19:52.798Z,8.63
2022-08-19T22:22:24.088Z,8.60
2022-08-19T22:24:54.309Z,8.97
2022-08-19T22:27:21.169Z,8.70
2022-08-19T22:29:47.751Z,8.40
2022-08-19T22:32:28.046Z,7.78
2022-08-19T22:34:58.142Z,8.43
2022-08-19T22:37:24.719Z,8.40
2022-08-19T22:39:51.580Z,8.65
2022-08-19T22:42:20.185Z,8.50
2022-08-19T22:44:46.784Z,8.00
2022-08-19T22:47:14.554Z,8.27
2022-08-19T22:49:41.090Z,8.33
2022-08-19T22:52:19.784Z,8.07
2022-08-19T22:54:48.391Z,8.20
2022-08-19T22:57:15.409Z,7.60
2022-08-19T22:59:42.228Z,7.90
2022-08-19T23:02:09.665Z,7.90
2022-08-19T23:04:36.271Z,7.78
2022-08-19T23:07:03.350Z,7.72
2022-08-19T23:09:30.485Z,8.00
2022-08-19T23:11:57.223Z,7.93
2022-08-19T23:14:23.689Z,7.80
2022-08-19T23:16:51.366Z,7.47
2022-08-19T23:19:21.487Z,7.88
2022-08-19T23:21:48.969Z,7.28
2022-08-19T23:24:15.661Z,7.78
2022-08-19T23:27:04.689Z,7.37
2022-08-19T23:29:50.370Z,7.90
2022-08-19T23:32:18.444Z,7.78
2022-08-19T23:34:45.282Z,7.47
2022-08-19T23:37:11.960Z,7.32
2022-08-19T23:39:38.559Z,7.60
2022-08-19T23:42:12.492Z,7.50
2022-08-19T23:44:51.960Z,8.10
2022-08-19T23:47:21.135Z,7.55
2022-08-19T23:49:48.722Z,7.63
2022-08-19T23:52:15.233Z,7.43
2022-08-19T23:54:43.687Z,7.72
2022-08-19T23:57:13.422Z,7.43
2022-08-19T23:59:42.517Z,7.70
